Latest Weather Observations for Hay Airport

IDN60801

Issued at 11:05 pm EST Saturday 23 August 2014 (issued every 30 minutes, with the page automatically refreshed every 10 minutes)

About weather observations | Map of weather stations | Latest weather observations for NSW | Other Formats
Station Details ID: 075019 Name: HAY AIRPORT AWS Lat: -34.54 Lon: 144.83 Height: 92.0 m
Data from the previous 72 hours. | See also: Recent months for locations in New South Wales
Date/Time
EST
Temp
°C
App
Temp
°C
Dew
Point
Rel
Hum
%
Delta-T
°C
Wind Press
QNH
hPa
Press
MSL
hPa
Rain
since 9 am
mm
Dir
 
Spd
km/h
Gust
km/h
Spd
kts
Gust
kts
23/11:00pm 13.2 8.7 4.4 55 4.0 NNE 17 22 9 12 1026.6 1026.7 0.0
23/10:30pm 14.4 10.0 4.7 52 4.5 NE 17 19 9 10 1026.7 - 0.0
23/10:00pm 15.6 11.2 4.6 48 5.1 NNE 17 20 9 11 1026.8 1026.9 0.0
23/09:30pm 14.9 10.9 4.9 51 4.7 NNE 15 19 8 10 1026.8 - 0.0
23/09:00pm 15.5 11.1 4.8 49 5.0 NNE 17 20 9 11 1026.6 1026.7 0.0
23/08:30pm 16.0 11.7 5.3 49 5.1 NE 17 20 9 11 1026.4 - 0.0
23/08:00pm 15.9 12.2 4.6 47 5.3 NE 13 17 7 9 1026.2 1026.3 0.0
23/07:30pm 15.9 12.6 4.6 47 5.3 NE 11 15 6 8 1026.0 - 0.0
23/07:00pm 16.4 12.8 4.8 46 5.5 NE 13 17 7 9 1025.7 1025.8 0.0
23/06:30pm 17.5 13.9 5.1 44 5.9 NE 13 17 7 9 1025.5 - 0.0
23/06:00pm 18.7 14.8 5.2 41 6.5 NE 15 20 8 11 1025.4 1025.5 0.0
23/05:30pm 20.1 15.7 5.0 37 7.4 NNE 17 20 9 11 1025.2 - 0.0
23/05:00pm 20.5 15.8 5.3 37 7.5 NE 19 26 10 14 1025.1 1025.2 0.0
23/04:30pm 21.5 16.8 5.0 34 8.2 NE 19 24 10 13 1025.2 - 0.0
23/04:00pm 20.9 16.6 5.3 36 7.7 NNE 17 26 9 14 1025.2 1025.3 0.0
23/03:30pm 20.9 16.6 5.3 36 7.7 NNE 17 24 9 13 1025.5 - 0.0
23/03:00pm 23.5 18.9 5.4 31 9.1 N 19 26 10 14 1025.5 1025.6 0.0
23/02:30pm 22.0 17.2 5.4 34 8.3 N 20 30 11 16 1025.8 - 0.0
23/02:00pm 22.0 17.9 6.3 36 7.9 NNE 17 28 9 15 1026.1 1026.2 0.0
23/01:30pm 22.3 17.9 6.5 36 8.1 NNE 19 24 10 13 1026.5 - 0.0
23/01:00pm 21.8 17.5 7.2 39 7.5 NNE 19 28 10 15 1026.7 1026.8 0.0
23/12:30pm 20.7 16.3 6.6 40 7.2 NNE 19 28 10 15 1027.2 - 0.0
23/12:00pm 20.7 16.0 7.7 43 6.7 N 22 39 12 21 1027.7 1027.8 0.0
23/11:30am 20.0 15.0 8.0 46 6.2 NNE 24 32 13 17 1028.1 - 0.0
23/11:00am 19.4 14.5 8.4 49 5.7 NNE 24 33 13 18 1028.5 1028.6 0.0
23/10:30am 18.0 12.3 8.3 53 5.0 N 28 33 15 18 1028.6 - 0.0
23/10:00am 17.9 13.0 8.5 54 4.8 NNE 24 33 13 18 1028.6 1028.7 0.0
23/09:30am 16.2 11.3 8.4 60 4.0 NNE 24 30 13 16 1028.7 - 0.0
23/09:00am 14.2 9.1 7.7 65 3.2 NNE 24 30 13 16 1028.7 1028.8 0.0
23/08:30am 12.9 8.2 7.6 70 2.6 NNE 22 28 12 15 1028.7 - 0.0
23/08:00am 12.1 7.7 7.6 74 2.2 NNE 20 30 11 16 1028.5 1028.6 0.0
23/07:30am 10.8 6.3 7.1 78 1.8 NE 20 28 11 15 1028.1 - 0.0
23/07:00am 9.9 6.0 7.0 82 1.4 NE 17 20 9 11 1027.8 1027.9 0.0
23/06:30am 10.0 6.1 7.1 82 1.4 NE 17 20 9 11 1027.5 - 0.0
23/06:00am 8.7 6.2 6.5 86 1.0 ENE 9 13 5 7 1027.4 1027.5 0.0
23/05:30am 9.1 6.2 6.4 83 1.3 ENE 11 15 6 8 1027.0 - 0.0
23/05:00am 10.0 6.1 7.1 82 1.4 ENE 17 24 9 13 1026.8 1026.9 0.0
23/04:30am 9.5 5.9 6.6 82 1.4 ENE 15 19 8 10 1026.6 - 0.0
23/04:00am 10.5 7.2 6.5 76 1.9 ENE 13 15 7 8 1026.5 1026.6 0.0
23/03:30am 11.5 7.7 7.4 76 2.0 NE 17 24 9 13 1026.6 - 0.0
23/03:00am 11.2 8.1 7.1 76 2.0 ENE 13 17 7 9 1026.9 1027.0 0.0
23/02:30am 11.7 8.6 7.4 75 2.1 ENE 13 19 7 10 1026.9 - 0.0
23/02:00am 12.1 7.9 7.4 73 2.3 ENE 19 26 10 14 1027.0 1027.1 0.0
23/01:30am 12.5 9.1 7.6 72 2.4 ENE 15 20 8 11 1027.3 - 0.0
23/01:00am 12.8 9.5 7.9 72 2.4 ENE 15 19 8 10 1027.4 1027.5 0.0
23/12:30am 10.2 7.7 6.7 79 1.7 ENE 9 13 5 7 1027.5 - 0.0
23/12:00am 10.1 7.6 6.6 79 1.6 E 9 13 5 7 1027.3 1027.4 0.0
 
Date/Time
EST
Temp
°C
App
Temp
°C
Dew
Point
Rel
Hum
%
Delta-T
°C
Wind Press
QNH
hPa
Press
MSL
hPa
Rain
since 9 am
mm
Dir
 
Spd
km/h
Gust
km/h
Spd
kts
Gust
kts
22/11:30pm 9.9 7.3 6.1 77 1.8 E 9 13 5 7 1027.3 - 0.0
22/11:00pm 10.4 7.4 6.0 74 2.0 E 11 15 6 8 1027.5 1027.6 0.0
22/10:30pm 10.4 7.0 6.0 74 2.0 E 13 17 7 9 1027.5 - 0.0
22/10:00pm 10.4 7.0 5.8 73 2.1 E 13 15 7 8 1027.6 1027.7 0.0
22/09:30pm 10.5 7.7 5.3 70 2.4 E 9 13 5 7 1027.6 - 0.0
22/09:00pm 11.4 8.3 5.5 67 2.7 E 11 13 6 7 1027.5 1027.6 0.0
22/08:30pm 12.4 9.0 6.0 65 3.0 ENE 13 15 7 8 1027.3 - 0.0
22/08:00pm 13.3 10.0 6.2 62 3.4 E 13 15 7 8 1027.2 1027.3 0.0
22/07:30pm 13.1 10.3 5.3 59 3.7 E 9 11 5 6 1027.0 - 0.0
22/07:00pm 14.2 11.1 5.6 56 4.1 E 11 13 6 7 1026.8 1026.9 0.0
22/06:30pm 15.5 12.4 5.7 52 4.7 E 11 15 6 8 1026.6 - 0.0
22/06:00pm 16.7 13.2 5.6 48 5.3 E 13 17 7 9 1026.3 1026.4 0.0
22/05:30pm 18.3 14.1 5.8 44 6.1 E 17 22 9 12 1026.1 - 0.0
22/05:00pm 19.2 14.3 5.3 40 6.8 E 20 28 11 15 1026.0 1026.1 0.0
22/04:30pm 18.8 14.1 6.0 43 6.3 E 20 28 11 15 1025.9 - 0.0
22/04:00pm 19.7 15.0 6.1 41 6.8 NE 20 24 11 13 1025.7 1025.8 0.0
22/03:30pm 20.3 15.7 6.3 40 7.0 ENE 20 28 11 15 1025.9 - 0.0
22/03:00pm 20.5 16.0 6.1 39 7.2 ENE 19 30 10 16 1026.2 1026.3 0.0
22/02:30pm 20.1 15.6 6.1 40 7.0 NE 19 28 10 15 1026.4 - 0.0
22/02:00pm 20.6 16.2 6.5 40 7.1 ENE 19 26 10 14 1026.6 1026.7 0.0
22/01:30pm 19.8 15.5 6.9 43 6.5 E 19 28 10 15 1027.1 - 0.0
22/01:00pm 19.4 15.3 6.2 42 6.5 ENE 17 20 9 11 1027.6 1027.7 0.0
22/12:30pm 19.4 15.1 7.2 45 6.2 NNE 19 20 10 11 1028.0 - 0.0
22/12:00pm 18.9 15.4 7.4 47 5.8 ENE 15 24 8 13 1028.6 1028.7 0.0
22/11:30am 17.7 13.2 6.9 49 5.4 NE 20 30 11 16 1029.0 - 0.0
22/11:00am 17.0 12.1 6.8 51 5.0 NE 22 30 12 16 1029.3 1029.4 0.0
22/10:30am 16.5 11.5 6.3 51 5.0 ENE 22 32 12 17 1029.7 - 0.0
22/10:00am 16.2 11.9 6.9 54 4.6 ENE 19 24 10 13 1029.8 1029.9 0.0
22/09:30am 14.4 10.1 7.2 62 3.5 E 19 24 10 13 1029.9 - 0.0
22/09:00am 12.3 7.9 6.6 68 2.7 E 19 24 10 13 1030.0 1030.1 0.0
22/08:30am 9.9 6.2 6.1 77 1.8 E 15 19 8 10 1029.9 - 0.0
22/08:00am 7.6 3.7 5.2 85 1.1 E 15 20 8 11 1029.8 1029.9 0.0
22/07:30am 5.5 1.8 4.3 92 0.5 E 13 17 7 9 1029.4 - 0.0
22/07:00am 4.4 0.5 3.5 94 0.4 E 13 17 7 9 1029.1 1029.2 0.0
22/06:30am 4.3 0.4 3.4 94 0.4 E 13 15 7 8 1028.8 - 0.0
22/06:00am 4.5 0.6 3.6 94 0.4 E 13 15 7 8 1028.6 1028.7 0.0
22/05:30am 4.4 0.6 3.7 95 0.3 E 13 15 7 8 1028.4 - 0.0
22/05:00am 4.0 0.4 3.1 94 0.4 E 11 13 6 7 1028.3 1028.4 0.0
22/04:30am 3.7 0.4 2.5 92 0.5 E 9 13 5 7 1028.0 - 0.0
22/04:00am 4.0 0.7 2.7 91 0.5 E 9 11 5 6 1027.9 1028.0 0.0
22/03:30am 4.9 1.7 3.2 89 0.7 E 9 13 5 7 1027.8 - 0.0
22/03:00am 4.5 1.2 2.5 87 0.8 E 9 13 5 7 1027.7 1027.8 0.0
22/02:30am 5.1 1.8 2.6 84 1.0 E 9 11 5 6 1028.1 - 0.0
22/02:00am 5.8 1.8 3.1 83 1.1 E 13 17 7 9 1028.1 1028.2 0.0
22/01:30am 5.1 1.4 2.3 82 1.1 E 11 13 6 7 1028.2 - 0.0
22/01:00am 4.7 1.3 1.6 80 1.2 E 9 11 5 6 1028.3 1028.4 0.0
22/12:30am 4.6 1.5 1.1 78 1.4 E 7 9 4 5 1028.1 - 0.0
22/12:00am 5.2 2.1 1.3 76 1.5 ESE 7 9 4 5 1028.1 1028.2 0.0
 
Date/Time
EST
Temp
°C
App
Temp
°C
Dew
Point
Rel
Hum
%
Delta-T
°C
Wind Press
QNH
hPa
Press
MSL
hPa
Rain
since 9 am
mm
Dir
 
Spd
km/h
Gust
km/h
Spd
kts
Gust
kts
21/11:30pm 5.9 2.0 1.2 72 1.9 ESE 11 13 6 7 1028.2 - 0.0
21/11:00pm 7.4 4.0 1.9 68 2.2 E 9 11 5 6 1028.2 1028.3 0.0
21/10:30pm 8.3 5.0 2.5 67 2.4 E 9 13 5 7 1028.1 - 0.0
21/10:00pm 8.5 5.1 2.1 64 2.7 E 9 11 5 6 1028.2 1028.3 0.0
21/09:30pm 9.8 6.2 2.9 62 3.0 E 11 15 6 8 1028.2 - 0.0
21/09:00pm 10.8 6.8 3.1 59 3.3 E 13 15 7 8 1028.0 1028.1 0.0
21/08:30pm 11.3 7.7 2.9 56 3.7 E 11 15 6 8 1027.9 - 0.0
21/08:00pm 11.1 7.7 1.9 53 3.9 E 9 11 5 6 1027.6 1027.7 0.0
21/07:30pm 11.6 8.2 1.8 51 4.2 E 9 13 5 7 1027.3 - 0.0
21/07:00pm 12.8 9.1 2.4 49 4.5 E 11 15 6 8 1027.0 1027.1 0.0
21/06:30pm 14.3 10.7 2.9 46 5.1 E 11 13 6 7 1026.7 - 0.0
21/06:00pm 15.6 12.4 3.1 43 5.7 E 9 11 5 6 1026.5 1026.6 0.0
21/05:30pm 17.6 13.0 3.5 39 6.6 E 17 24 9 13 1026.1 - 0.0
21/05:00pm 18.5 14.6 3.2 36 7.1 ESE 13 20 7 11 1025.8 1025.9 0.0
21/04:30pm 19.0 14.4 3.6 36 7.3 E 17 24 9 13 1025.7 - 0.0
21/04:00pm 19.0 14.8 3.6 36 7.2 ENE 15 20 8 11 1025.6 1025.7 0.0
21/03:30pm 18.1 14.4 4.3 40 6.6 E 13 17 7 9 1025.5 - 0.0
21/03:00pm 18.5 15.5 3.9 38 6.9 ESE 9 13 5 7 1025.6 1025.7 0.0
21/02:30pm 18.4 15.4 4.2 39 6.8 E 9 17 5 9 1025.7 - 0.0
21/02:00pm 19.6 16.3 4.5 37 7.3 ENE 11 22 6 12 1026.0 1026.1 0.0
21/01:30pm 19.2 16.8 4.2 37 7.2 ENE 6 17 3 9 1026.3 - 0.0
21/01:00pm 19.6 16.1 5.6 40 6.9 NE 13 20 7 11 1026.8 1026.9 0.0
21/12:30pm 18.8 14.8 4.9 40 6.7 NE 15 24 8 13 1027.2 - 0.0
21/12:00pm 17.9 13.9 4.8 42 6.3 NNE 15 22 8 12 1027.7 1027.8 0.0
21/11:30am 18.3 13.9 4.8 41 6.5 NNE 17 26 9 14 1028.0 - 0.0
21/11:00am 17.4 13.0 5.0 44 5.9 NE 17 26 9 14 1028.2 1028.3 0.0
21/10:30am 16.8 11.7 3.1 40 6.3 N 19 26 10 14 1028.3 - 0.0
21/10:00am 15.7 11.5 5.9 52 4.7 NNE 17 24 9 13 1028.5 1028.6 0.0
21/09:30am 14.4 10.5 7.0 61 3.6 NE 17 22 9 12 1028.5 - 0.0
21/09:00am 10.8 7.5 6.6 75 2.0 NE 13 19 7 10 1028.5 1028.6 0.0
21/08:30am 6.9 4.6 5.8 93 0.5 E 7 9 4 5 1028.2 - 0.0
21/08:00am 3.3 0.1 3.2 99 0.0 E 9 13 5 7 1028.1 1028.2 0.0
21/07:30am 2.1 -0.9 1.8 98 0.1 E 7 9 4 5 1027.7 - 0.0
21/07:00am 0.8 -2.9 0.2 96 0.2 ESE 9 9 5 5 1027.4 1027.5 0.0
21/06:30am 0.8 -2.5 0.1 95 0.3 ESE 7 9 4 5 1027.0 - 0.0
21/06:00am 0.2 -3.2 -0.9 92 0.4 ESE 7 7 4 4 1026.7 1026.8 0.0
21/05:30am 1.5 -0.4 0.8 95 0.3 CALM 0 0 0 0 1026.5 - 0.0
21/05:00am 1.7 -0.5 0.8 94 0.3 SE 2 6 1 3 1026.4 1026.5 0.0
21/04:30am 1.3 -1.8 0.0 91 0.5 SE 6 7 3 4 1026.4 - 0.0
21/04:00am 2.6 0.9 1.6 93 0.4 CALM 0 0 0 0 1026.3 1026.4 0.0
21/03:30am 2.0 0.1 0.4 89 0.6 CALM 0 0 0 0 1026.4 - 0.0
21/03:00am 2.6 0.4 1.0 89 0.6 S 2 6 1 3 1026.2 1026.3 0.0
21/02:30am 3.3 1.6 1.7 89 0.6 CALM 0 0 0 0 1026.3 - 0.0
21/02:00am 3.6 2.0 2.3 91 0.5 CALM 0 0 0 0 1026.2 1026.3 0.0
21/01:30am 3.1 1.2 0.7 84 0.9 CALM 0 0 0 0 1026.2 - 0.0
21/01:00am 4.2 2.5 2.1 86 0.8 CALM 0 0 0 0 1026.1 1026.2 0.0
21/12:30am 4.4 2.7 1.9 84 1.0 CALM 0 0 0 0 1026.0 - 0.0
21/12:00am 5.6 2.6 2.3 79 1.3 S 7 9 4 5 1026.0 1026.1 0.0
 
Date/Time
EST
Temp
°C
App
Temp
°C
Dew
Point
Rel
Hum
%
Delta-T
°C
Wind Press
QNH
hPa
Press
MSL
hPa
Rain
since 9 am
mm
Dir
 
Spd
km/h
Gust
km/h
Spd
kts
Gust
kts
20/11:30pm 7.2 3.7 3.4 77 1.6 S 11 15 6 8 1026.1 - 0.0

Other Formats:

Comma delimited format used in spreadsheet applications
http://www.bom.gov.au/fwo/IDN60801/IDN60801.94702.axf

JavaScript Object Notation format (JSON) in row-major order
http://www.bom.gov.au/fwo/IDN60801/IDN60801.94702.json